Time;durP1;ratioP1;P1;durP2;ratioP2;P2;SDS_P1;SDS_P2;PMS_P1;PMS_P2;Temp;Humidity;BMP_temperature;BMP_pressure;BME280_temperature;BME280_humidity;BME280_pressure;Samples;Min_cycle;Max_cycle;Signal;HPM_P1;HPM_P2
2023/10/20 00:00:18;;;;;;;7.17;5.70;;;;;;;18.14;50.07;98879.50;2274369;76;52280;-74
2023/10/20 00:03:20;;;;;;;7.10;5.55;;;;;;;18.11;50.15;98879.11;2323469;76;51569;-74
2023/10/20 00:06:22;;;;;;;7.90;5.65;;;;;;;18.09;50.20;98887.91;2299740;76;51516;-74
2023/10/20 00:09:25;;;;;;;7.28;5.42;;;;;;;18.08;50.21;98894.28;2274131;76;52491;-74
2023/10/20 00:12:27;;;;;;;6.50;5.35;;;;;;;18.16;50.10;98893.98;2299547;76;51433;-74
2023/10/20 00:15:29;;;;;;;7.53;5.62;;;;;;;18.19;50.02;98885.53;2299623;76;50778;-74
2023/10/20 00:18:31;;;;;;;6.97;5.40;;;;;;;18.30;49.84;98895.48;2299591;75;52463;-74
2023/10/20 00:21:35;;;;;;;7.03;5.53;;;;;;;18.33;49.78;98896.89;2274376;76;51415;-74
2023/10/20 00:24:37;;;;;;;7.60;5.35;;;;;;;18.39;49.61;98896.80;2299615;76;50311;-74
2023/10/20 00:27:41;;;;;;;7.00;5.05;;;;;;;18.38;49.59;98902.39;2299594;76;49899;-74
2023/10/20 00:30:43;;;;;;;7.08;5.67;;;;;;;18.34;49.69;98881.95;2301707;76;50304;-74
2023/10/20 00:33:50;;;;;;;7.28;5.53;;;;;;;18.27;49.83;98875.86;2272831;76;50066;-74
2023/10/20 00:36:52;;;;;;;6.40;5.30;;;;;;;18.22;49.94;98877.86;2299032;76;51576;-74
2023/10/20 00:39:54;;;;;;;6.65;5.42;;;;;;;18.19;49.99;98880.98;2298073;76;51436;-74
2023/10/20 00:42:56;;;;;;;7.92;5.30;;;;;;;18.17;50.05;98872.88;2246544;76;52383;-74
2023/10/20 00:45:59;;;;;;;6.50;4.95;;;;;;;18.15;50.10;98864.25;2324512;76;51545;-74
2023/10/20 00:49:02;;;;;;;6.25;4.95;;;;;;;18.12;50.16;98867.38;2324377;76;50781;-74
2023/10/20 00:52:06;;;;;;;6.45;5.10;;;;;;;18.11;50.18;98873.27;2271782;76;50256;-74
2023/10/20 00:55:09;;;;;;;6.20;4.65;;;;;;;18.19;50.03;98862.78;2271881;76;53000;-74
2023/10/20 00:58:11;;;;;;;6.95;5.20;;;;;;;18.27;49.89;98857.11;2324438;76;50340;-74
2023/10/20 01:01:13;;;;;;;6.58;4.78;;;;;;;18.28;49.86;98858.73;2326668;76;50393;-75
2023/10/20 01:04:15;;;;;;;6.22;4.95;;;;;;;18.31;49.79;98854.27;2330538;75;50373;-74
2023/10/20 01:07:17;;;;;;;6.58;4.92;;;;;;;18.27;49.83;98851.76;2323954;76;49549;-74
2023/10/20 01:10:20;;;;;;;7.35;4.87;;;;;;;18.24;49.88;98846.86;2324362;76;50616;-74
2023/10/20 01:13:25;;;;;;;6.10;4.90;;;;;;;18.18;49.99;98846.41;2297641;76;51474;-74
2023/10/20 01:16:27;;;;;;;6.12;4.78;;;;;;;18.12;50.15;98845.97;2272749;76;51544;-74
2023/10/20 01:19:30;;;;;;;5.58;4.70;;;;;;;18.09;50.20;98861.14;2324428;76;51484;-74
2023/10/20 01:22:32;;;;;;;6.83;4.67;;;;;;;18.10;50.20;98862.77;2272220;76;51030;-74
2023/10/20 01:25:35;;;;;;;6.50;4.50;;;;;;;18.08;50.21;98872.87;2324351;76;50642;-74
2023/10/20 01:28:38;;;;;;;5.78;4.75;;;;;;;18.07;50.23;98847.97;2324421;76;50812;-74
2023/10/20 01:31:40;;;;;;;5.70;4.90;;;;;;;18.13;50.17;98843.58;2250580;76;51116;-74
2023/10/20 01:34:42;;;;;;;5.87;4.70;;;;;;;18.21;49.97;98851.30;2324883;75;50033;-74
2023/10/20 01:37:44;;;;;;;6.55;5.10;;;;;;;18.33;49.73;98844.16;2326278;75;50330;-74
2023/10/20 01:40:46;;;;;;;6.75;4.85;;;;;;;18.36;49.63;98853.07;2326245;75;50721;-74
2023/10/20 01:43:49;;;;;;;6.45;5.03;;;;;;;18.37;49.62;98833.30;2299438;76;51442;-74
2023/10/20 01:46:51;;;;;;;5.53;4.30;;;;;;;18.36;49.63;98830.31;2274443;76;51571;-74
2023/10/20 01:49:53;;;;;;;6.25;4.80;;;;;;;18.37;49.61;98831.12;2299686;76;50718;-74
2023/10/20 01:52:55;;;;;;;5.80;4.83;;;;;;;18.28;49.76;98818.58;2299466;75;51530;-74
2023/10/20 01:55:58;;;;;;;5.53;4.37;;;;;;;18.24;49.83;98819.56;2274215;76;52388;-74
2023/10/20 01:59:00;;;;;;;6.20;4.97;;;;;;;18.21;49.88;98820.02;2299664;76;51507;-74
2023/10/20 02:02:03;;;;;;;5.62;4.65;;;;;;;18.16;49.99;98819.87;2291905;76;50321;-74
2023/10/20 02:05:10;;;;;;;6.22;4.78;;;;;;;18.15;50.04;98821.42;2324102;76;51544;-74
2023/10/20 02:08:12;;;;;;;5.10;4.03;;;;;;;18.13;50.09;98819.48;2324262;76;51644;-74
2023/10/20 02:11:15;;;;;;;6.67;4.67;;;;;;;18.18;49.97;98816.95;2272348;76;52477;-74
2023/10/20 02:14:17;;;;;;;6.12;4.75;;;;;;;18.21;49.95;98823.19;2324095;76;50715;-74
2023/10/20 02:17:20;;;;;;;6.25;4.65;;;;;;;18.30;49.78;98815.16;2297773;76;50725;-74
2023/10/20 02:20:24;;;;;;;5.45;4.08;;;;;;;18.31;49.71;98811.42;2271026;76;52289;-74
2023/10/20 02:23:26;;;;;;;5.90;4.85;;;;;;;18.30;49.78;98817.03;2324321;76;22793;-74
2023/10/20 02:26:29;;;;;;;5.17;4.28;;;;;;;18.33;49.67;98827.28;2297686;76;51454;-74
2023/10/20 02:29:33;;;;;;;5.20;4.25;;;;;;;18.32;49.68;98815.76;2271444;76;50840;-74
2023/10/20 02:32:35;;;;;;;4.87;4.20;;;;;;;18.31;49.71;98809.28;2331431;75;51545;-73
2023/10/20 02:35:42;;;;;;;4.83;4.28;;;;;;;18.22;49.84;98809.59;2271965;76;51168;-74
2023/10/20 02:38:44;;;;;;;5.47;4.15;;;;;;;18.14;50.03;98804.55;2336304;75;50493;-74
2023/10/20 02:41:46;;;;;;;5.78;4.50;;;;;;;18.13;50.04;98802.90;2326162;75;50420;-74
2023/10/20 02:44:49;;;;;;;6.12;4.80;;;;;;;18.10;50.07;98789.98;2309758;76;51623;-74
2023/10/20 02:47:54;;;;;;;4.87;3.67;;;;;;;18.14;50.03;98782.33;2299417;75;51835;-74
2023/10/20 02:50:56;;;;;;;5.42;4.00;;;;;;;18.19;49.90;98768.56;2299564;76;51315;-74
2023/10/20 02:53:58;;;;;;;5.55;4.67;;;;;;;18.26;49.77;98771.97;2309416;76;51615;-74
2023/10/20 02:57:00;;;;;;;5.33;4.20;;;;;;;18.33;49.62;98766.51;2299425;76;50245;-74
2023/10/20 03:00:14;;;;;;;5.55;4.58;;;;;;;18.37;49.62;98772.21;2299457;76;51202;-74
2023/10/20 03:03:13;;;;;;;6.05;4.72;;;;;;;18.35;49.63;98771.12;2298946;76;22230;-74
2023/10/20 03:06:15;;;;;;;6.10;4.50;;;;;;;18.37;49.55;98767.70;2326002;76;51527;-74
2023/10/20 03:09:18;;;;;;;4.97;4.05;;;;;;;18.34;49.61;98765.48;2274224;76;51250;-74
2023/10/20 03:12:21;;;;;;;5.10;4.08;;;;;;;18.28;49.75;98754.33;2299521;76;51893;-74
2023/10/20 03:15:23;;;;;;;5.20;4.08;;;;;;;18.21;49.89;98755.77;2299563;76;51570;-74
2023/10/20 03:18:26;;;;;;;4.92;4.17;;;;;;;18.16;49.99;98747.60;2273148;76;50211;-74
2023/10/20 03:21:28;;;;;;;4.35;3.62;;;;;;;18.15;50.01;98739.78;2299355;76;50094;-74
2023/10/20 03:24:32;;;;;;;4.65;4.00;;;;;;;18.12;50.08;98745.59;2273735;76;52368;-74
2023/10/20 03:27:35;;;;;;;5.35;3.90;;;;;;;18.16;49.93;98758.81;2326039;76;51525;-74
2023/10/20 03:30:39;;;;;;;4.78;4.00;;;;;;;18.21;49.85;98749.58;2304859;75;51531;-74
2023/10/20 03:33:42;;;;;;;4.50;3.83;;;;;;;18.33;49.63;98749.10;2299259;76;51071;-74
2023/10/20 03:36:44;;;;;;;4.67;3.70;;;;;;;18.32;49.65;98742.13;2313746;76;51577;-74
2023/10/20 03:39:46;;;;;;;5.15;4.17;;;;;;;18.35;49.56;98743.53;2313636;76;51744;-74
2023/10/20 03:42:49;;;;;;;4.65;3.90;;;;;;;18.36;49.50;98731.77;2284558;76;51514;-74
2023/10/20 03:45:56;;;;;;;5.15;3.55;;;;;;;18.34;49.51;98722.64;2313697;76;51546;-74
2023/10/20 03:48:58;;;;;;;4.50;3.72;;;;;;;18.32;49.55;98720.70;2338573;75;22791;-73
2023/10/20 03:52:01;;;;;;;4.58;3.70;;;;;;;18.27;49.62;98733.97;2285256;76;50672;-73
2023/10/20 03:55:06;;;;;;;4.33;3.60;;;;;;;18.21;49.79;98732.17;2313456;76;50665;-72
2023/10/20 03:58:08;;;;;;;5.35;3.98;;;;;;;18.14;49.93;98731.47;2338595;75;22115;-73
2023/10/20 04:01:11;;;;;;;3.98;3.50;;;;;;;18.14;49.94;98714.08;2311426;76;51623;-73
2023/10/20 04:04:13;;;;;;;4.92;3.58;;;;;;;18.11;49.95;98709.99;2331388;75;50059;-73
2023/10/20 04:07:15;;;;;;;4.42;3.50;;;;;;;18.13;49.93;98717.78;2326297;76;50600;-73
2023/10/20 04:10:20;;;;;;;4.08;3.67;;;;;;;18.16;49.88;98697.24;2299596;76;50612;-73
2023/10/20 04:13:28;;;;;;;4.10;3.45;;;;;;;18.17;49.91;98692.20;2300000;75;52948;-73
2023/10/20 04:16:27;;;;;;;4.62;3.45;;;;;;;18.29;49.70;98693.06;2299420;76;22245;-73
2023/10/20 04:19:30;;;;;;;4.67;3.40;;;;;;;18.36;49.50;98692.41;2299860;75;51641;-73
2023/10/20 04:22:32;;;;;;;3.98;3.17;;;;;;;18.44;49.32;98693.95;2299475;76;51784;-74
2023/10/20 04:25:39;;;;;;;4.50;3.37;;;;;;;18.40;49.39;98677.53;2326206;75;50628;-74
2023/10/20 04:28:43;;;;;;;3.72;3.30;;;;;;;18.37;49.44;98675.33;2326732;75;22195;-74
2023/10/20 04:42:44;;;;;;;4.10;3.12;;;;;;;18.19;49.72;98664.16;2326948;75;22371;-73
2023/10/20 04:46:52;;;;;;;4.53;3.60;;;;;;;18.15;49.81;98658.15;2322406;76;22375;-73
2023/10/20 04:51:50;;;;;;;3.70;3.27;;;;;;;18.14;49.89;98660.55;2284986;76;23037;-73
2023/10/20 04:54:45;;;;;;;4.35;3.45;;;;;;;18.22;49.72;98666.38;2296722;75;22669;-73
2023/10/20 04:57:53;;;;;;;3.98;3.40;;;;;;;18.28;49.58;98674.81;2302809;76;51526;-73
2023/10/20 05:01:07;;;;;;;3.50;3.20;;;;;;;18.32;49.44;98680.55;2329626;76;50694;-73
2023/10/20 05:04:09;;;;;;;3.83;3.10;;;;;;;18.27;49.60;98687.92;2299675;76;22179;-73
2023/10/20 05:07:08;;;;;;;4.37;3.20;;;;;;;18.31;49.50;98684.25;2270264;76;22139;-74
2023/10/20 05:10:10;;;;;;;3.75;3.35;;;;;;;18.26;49.61;98680.11;2301036;76;22722;-74
2023/10/20 05:13:13;;;;;;;3.35;2.92;;;;;;;18.25;49.61;98673.94;2284219;76;52557;-73
2023/10/20 05:16:15;;;;;;;3.08;2.65;;;;;;;18.21;49.66;98670.11;2326219;74;51571;-73
2023/10/20 05:19:17;;;;;;;3.17;2.87;;;;;;;18.12;49.88;98674.14;2249888;76;52207;-74
2023/10/20 05:22:19;;;;;;;4.15;2.90;;;;;;;18.09;49.91;98691.19;2299374;76;51575;-73
2023/10/20 05:25:21;;;;;;;5.12;3.10;;;;;;;18.07;49.97;98686.05;2326161;76;50342;-73
2023/10/20 05:28:24;;;;;;;3.95;3.12;;;;;;;18.14;49.82;98688.65;2274362;76;51180;-74
2023/10/20 05:31:26;;;;;;;2.72;2.47;;;;;;;18.16;49.80;98686.53;2273421;76;51555;-73
2023/10/20 05:34:29;;;;;;;3.25;2.77;;;;;;;18.25;49.63;98677.15;2322650;75;50407;-73
2023/10/20 05:37:32;;;;;;;2.95;2.65;;;;;;;18.31;49.54;98676.75;2326335;76;50288;-73
2023/10/20 05:40:36;;;;;;;3.77;2.92;;;;;;;18.33;49.45;98676.81;2325820;75;50405;-74
2023/10/20 05:43:38;;;;;;;4.45;2.77;;;;;;;18.35;49.45;98680.61;2326097;76;50669;-73
2023/10/20 05:46:41;;;;;;;3.08;2.67;;;;;;;18.36;49.40;98678.22;2299354;76;51117;-73
2023/10/20 05:49:43;;;;;;;4.05;2.80;;;;;;;18.34;49.38;98682.48;2326394;74;51577;-73
2023/10/20 05:52:45;;;;;;;3.25;2.83;;;;;;;18.29;49.51;98677.00;2299344;76;51553;-73
2023/10/20 05:55:47;;;;;;;3.62;2.87;;;;;;;18.23;49.59;98670.67;2299618;76;51070;-74
2023/10/20 05:58:50;;;;;;;3.58;2.95;;;;;;;18.21;49.64;98659.41;2299830;75;50095;-74
2023/10/20 06:01:52;;;;;;;3.62;3.02;;;;;;;18.16;49.75;98651.73;2288893;76;51525;-74
2023/10/20 06:04:55;;;;;;;3.60;3.10;;;;;;;18.15;49.77;98654.13;2326066;74;49961;-74
2023/10/20 06:07:57;;;;;;;3.52;2.95;;;;;;;18.13;49.80;98646.32;2326253;75;50312;-73
2023/10/20 06:11:04;;;;;;;4.42;2.77;;;;;;;18.23;49.62;98647.11;2272996;76;49563;-73
2023/10/20 06:14:06;;;;;;;3.35;2.80;;;;;;;18.27;49.51;98648.30;2325701;75;51441;-73
2023/10/20 06:17:09;;;;;;;4.03;2.62;;;;;;;18.27;49.50;98644.28;2299665;76;51436;-74
2023/10/20 06:20:11;;;;;;;3.30;2.58;;;;;;;18.32;49.42;98643.06;2299741;76;51691;-74
2023/10/20 06:23:14;;;;;;;3.83;2.95;;;;;;;18.34;49.36;98633.45;2299378;76;51514;-74
2023/10/20 06:26:16;;;;;;;4.92;2.92;;;;;;;18.33;49.36;98640.67;2326155;76;51506;-75
2023/10/20 06:29:26;;;;;;;3.10;2.80;;;;;;;18.30;49.42;98646.49;2299726;76;51636;-73
2023/10/20 06:32:40;;;;;;;4.05;2.80;;;;;;;18.24;49.53;98640.73;2324487;75;22199;-73
2023/10/20 06:35:34;;;;;;;3.27;2.85;;;;;;;18.21;49.58;98651.37;2259597;77;22315;-73
2023/10/20 06:38:45;;;;;;;3.27;2.83;;;;;;;18.18;49.63;98646.98;2262397;77;51553;-74
2023/10/20 06:41:47;;;;;;;2.90;2.55;;;;;;;18.10;49.79;98641.96;2287425;76;51473;-74
2023/10/20 06:44:49;;;;;;;4.17;3.05;;;;;;;18.11;49.78;98631.53;2261062;77;51638;-75
2023/10/20 06:47:51;;;;;;;2.90;2.60;;;;;;;18.09;49.83;98617.06;2261876;77;50434;-74
2023/10/20 06:50:54;;;;;;;3.33;2.65;;;;;;;18.22;49.56;98630.23;2287479;77;50613;-73
2023/10/20 06:53:56;;;;;;;2.72;2.40;;;;;;;18.25;49.55;98624.95;2286519;77;50188;-74
2023/10/20 06:56:59;;;;;;;3.20;2.80;;;;;;;18.29;49.51;98611.41;2261508;77;49968;-73
2023/10/20 07:00:03;;;;;;;2.75;2.50;;;;;;;18.36;49.31;98605.40;2261416;77;51321;-72
2023/10/20 07:03:05;;;;;;;2.77;2.35;;;;;;;18.37;49.30;98597.67;2321483;76;50407;-73
2023/10/20 07:06:09;;;;;;;3.67;2.62;;;;;;;18.41;49.21;98598.02;2313905;76;51505;-72
2023/10/20 07:09:14;;;;;;;2.83;2.45;;;;;;;18.36;49.31;98588.52;2288330;76;51700;-73
2023/10/20 07:12:16;;;;;;;3.15;2.83;;;;;;;18.32;49.36;98588.71;2314313;76;51481;-72
2023/10/20 07:15:18;;;;;;;3.02;2.35;;;;;;;18.28;49.41;98589.67;2338480;76;51513;-72
2023/10/20 07:18:21;;;;;;;2.70;2.45;;;;;;;18.26;49.47;98583.73;2284963;76;51570;-72
2023/10/20 07:21:23;;;;;;;3.42;2.70;;;;;;;18.18;49.59;98579.53;2338474;76;51306;-71
2023/10/20 07:24:26;;;;;;;2.87;2.33;;;;;;;18.13;49.73;98573.25;2339881;75;52491;-72
2023/10/20 07:27:29;;;;;;;2.62;2.40;;;;;;;18.18;49.59;98557.31;2338331;76;50673;-72
2023/10/20 07:30:31;;;;;;;3.67;2.55;;;;;;;18.18;49.61;98540.72;2338420;75;50363;-72
2023/10/20 07:33:33;;;;;;;3.65;2.50;;;;;;;18.29;49.39;98559.20;2262123;76;51102;-72
2023/10/20 07:36:36;;;;;;;3.17;2.67;;;;;;;18.35;49.29;98566.30;2299661;76;50234;-73
2023/10/20 07:39:38;;;;;;;3.77;2.20;;;;;;;18.30;49.40;98563.50;2299686;76;51551;-73
2023/10/20 07:42:40;;;;;;;3.47;2.52;;;;;;;18.33;49.33;98576.94;2299445;76;51449;-73
2023/10/20 07:45:43;;;;;;;2.55;2.35;;;;;;;18.30;49.36;98558.67;2299737;76;50738;-72
2023/10/20 07:48:45;;;;;;;2.67;2.33;;;;;;;18.27;49.39;98551.92;2325762;76;52446;-74
2023/10/20 07:51:47;;;;;;;2.62;2.33;;;;;;;18.21;49.50;98552.33;2326372;76;50418;-72
2023/10/20 07:54:50;;;;;;;3.15;2.85;;;;;;;18.16;49.61;98527.28;2326150;76;50648;-73
2023/10/20 07:57:52;;;;;;;2.62;2.33;;;;;;;18.13;49.64;98537.92;2325711;76;52509;-74
2023/10/20 08:00:55;;;;;;;2.92;2.42;;;;;;;18.09;49.75;98545.33;2326626;74;51452;-72
2023/10/20 08:03:57;;;;;;;3.30;2.65;;;;;;;18.05;49.83;98533.73;2328959;75;50393;-73
2023/10/20 08:07:00;;;;;;;3.17;2.52;;;;;;;18.10;49.74;98521.53;2298099;76;50440;-72
2023/10/20 08:10:02;;;;;;;2.47;2.15;;;;;;;18.14;49.64;98512.00;2298195;76;51494;-73
2023/10/20 08:13:05;;;;;;;3.12;2.58;;;;;;;18.21;49.49;98512.18;2246977;76;51574;-73
2023/10/20 08:16:07;;;;;;;3.42;2.80;;;;;;;18.30;49.37;98506.47;2298097;76;50736;-75
2023/10/20 08:19:10;;;;;;;2.92;2.45;;;;;;;18.37;49.18;98499.95;2324737;76;51719;-74
2023/10/20 08:22:12;;;;;;;3.83;2.80;;;;;;;18.40;49.09;98496.80;2272620;76;51032;-74
2023/10/20 08:25:15;;;;;;;4.87;3.08;;;;;;;18.41;49.11;98506.45;2324283;76;50431;-74
2023/10/20 08:28:17;;;;;;;4.28;3.10;;;;;;;18.42;49.02;98516.13;2324384;76;50772;-73
2023/10/20 08:31:21;;;;;;;5.25;3.30;;;;;;;18.39;49.10;98525.13;2298403;76;50835;-73
2023/10/20 08:34:23;;;;;;;5.60;3.55;;;;;;;18.38;49.09;98516.29;2288333;77;23023;-74
2023/10/20 08:37:25;;;;;;;6.58;4.10;;;;;;;18.29;49.27;98521.72;2237260;76;51155;-74
2023/10/20 08:40:35;;;;;;;6.97;4.10;;;;;;;18.28;49.27;98531.59;2261583;77;50219;-74
2023/10/20 08:43:39;;;;;;;8.25;4.28;;;;;;;18.22;49.41;98535.73;2287224;76;50237;-73
2023/10/20 08:46:42;;;;;;;8.83;4.93;;;;;;;18.17;49.48;98540.44;2237167;77;52597;-74
2023/10/20 08:49:45;;;;;;;8.18;5.03;;;;;;;18.18;49.48;98546.08;2287448;77;51529;-73
2023/10/20 08:52:48;;;;;;;9.30;4.78;;;;;;;18.25;49.37;98534.73;2287340;77;50001;-73
2023/10/20 08:55:50;;;;;;;9.25;4.95;;;;;;;18.33;49.18;98521.53;2287402;76;50326;-73
2023/10/20 08:58:52;;;;;;;9.53;5.58;;;;;;;18.38;49.02;98500.76;2261790;77;50418;-74
2023/10/20 09:01:55;;;;;;;9.33;5.12;;;;;;;18.35;49.07;98503.38;2250262;76;52283;-74
2023/10/20 09:04:57;;;;;;;9.30;5.10;;;;;;;18.35;49.10;98523.45;2301589;76;51533;-73
2023/10/20 09:08:00;;;;;;;8.88;5.37;;;;;;;18.30;49.17;98516.64;2327424;75;51336;-74
2023/10/20 09:11:02;;;;;;;9.25;5.30;;;;;;;18.28;49.24;98518.73;2329129;76;50978;-74
2023/10/20 09:14:05;;;;;;;9.70;5.08;;;;;;;18.26;49.27;98519.48;2327182;76;51566;-74
2023/10/20 09:17:12;;;;;;;10.48;5.25;;;;;;;18.18;49.40;98513.14;2274353;76;52179;-72
2023/10/20 09:20:14;;;;;;;10.37;5.43;;;;;;;18.08;49.60;98508.36;2274482;76;22820;-73
2023/10/20 09:23:16;;;;;;;9.20;5.28;;;;;;;18.08;49.61;98498.19;2303025;76;50129;-73
2023/10/20 09:26:18;;;;;;;9.08;5.20;;;;;;;18.10;49.62;98488.08;2303146;76;50693;-72
2023/10/20 09:29:21;;;;;;;11.75;5.87;;;;;;;18.14;49.55;98491.92;2327273;76;50433;-73
2023/10/20 09:32:23;;;;;;;7.95;4.92;;;;;;;18.26;49.32;98487.36;2328719;75;51584;-73
2023/10/20 09:35:25;;;;;;;12.15;5.40;;;;;;;18.29;49.24;98490.94;2327695;75;52465;-73
2023/10/20 09:38:28;;;;;;;9.63;5.30;;;;;;;18.36;49.11;98483.58;2326157;74;50244;-72
2023/10/20 09:41:30;;;;;;;8.25;5.08;;;;;;;18.35;49.13;98479.81;2326175;75;50253;-72
2023/10/20 09:44:41;;;;;;;9.08;4.97;;;;;;;18.36;49.09;98470.72;2299103;76;50389;-72
2023/10/20 09:47:45;;;;;;;10.93;5.60;;;;;;;18.40;48.97;98464.66;2326457;75;51410;-73
2023/10/20 09:50:48;;;;;;;9.03;5.30;;;;;;;18.40;48.95;98452.61;2272863;75;50941;-73
2023/10/20 09:53:51;;;;;;;10.08;5.70;;;;;;;18.35;49.04;98460.54;2326010;75;51435;-73
2023/10/20 09:56:53;;;;;;;8.00;4.70;;;;;;;18.34;49.04;98444.20;2326051;75;50625;-73
2023/10/20 09:59:55;;;;;;;9.55;5.55;;;;;;;18.26;49.21;98443.19;2299250;76;52341;-73
2023/10/20 10:03:02;;;;;;;9.40;4.85;;;;;;;18.22;49.23;98430.81;2330582;75;51486;-73
2023/10/20 10:06:02;;;;;;;8.13;4.70;;;;;;;18.16;49.36;98422.89;2338322;76;22389;-73
2023/10/20 10:09:05;;;;;;;9.33;4.85;;;;;;;18.13;49.41;98423.37;2314075;76;50708;-74
2023/10/20 10:12:09;;;;;;;8.45;4.67;;;;;;;18.19;49.33;98429.14;2313738;76;50390;-76
2023/10/20 10:15:14;;;;;;;8.90;5.25;;;;;;;18.27;49.16;98430.11;2340212;75;52460;-72
2023/10/20 10:18:18;;;;;;;8.60;4.65;;;;;;;18.30;49.07;98439.01;2286524;76;50755;-73
2023/10/20 10:21:30;;;;;;;8.93;4.47;;;;;;;18.29;49.08;98437.39;2338539;76;50310;-73
2023/10/20 10:24:37;;;;;;;8.13;4.60;;;;;;;18.34;48.98;98437.50;2287754;76;52692;-72
2023/10/20 10:27:39;;;;;;;9.25;4.85;;;;;;;18.30;49.02;98420.80;2338682;75;22668;-73
2023/10/20 10:30:41;;;;;;;5.72;3.95;;;;;;;18.28;49.04;98431.73;2314064;76;50271;-73
2023/10/20 10:33:43;;;;;;;7.65;4.30;;;;;;;18.22;49.13;98434.02;2272873;76;50658;-73
2023/10/20 10:36:47;;;;;;;7.65;4.70;;;;;;;18.18;49.20;98434.19;2326248;76;50460;-73
2023/10/20 10:39:49;;;;;;;7.47;4.55;;;;;;;18.15;49.29;98446.70;2274299;76;51272;-77
2023/10/20 10:42:52;;;;;;;8.35;4.35;;;;;;;18.15;49.26;98436.00;2273114;76;49947;-73
2023/10/20 10:45:55;;;;;;;6.45;4.10;;;;;;;18.10;49.36;98430.53;2299580;76;50695;-73
2023/10/20 10:49:10;;;;;;;6.87;4.42;;;;;;;18.11;49.36;98428.14;2274191;76;51200;-74
2023/10/20 10:52:12;;;;;;;7.87;4.28;;;;;;;18.13;49.32;98424.17;2298524;76;50266;-73
2023/10/20 10:55:14;;;;;;;7.53;4.50;;;;;;;18.25;49.09;98427.66;2326120;76;50640;-73
2023/10/20 10:58:17;;;;;;;7.42;3.92;;;;;;;18.28;49.01;98421.02;2273427;76;51493;-74
2023/10/20 11:01:19;;;;;;;5.72;3.85;;;;;;;18.30;48.97;98422.95;2326367;75;51574;-73
2023/10/20 11:04:21;;;;;;;6.28;4.05;;;;;;;18.34;48.92;98420.10;2330076;76;51449;-72
2023/10/20 11:07:23;;;;;;;7.30;4.20;;;;;;;18.42;48.74;98415.72;2326204;76;51430;-73
2023/10/20 11:10:30;;;;;;;5.87;3.90;;;;;;;18.39;48.79;98433.56;2326315;75;50248;-72
2023/10/20 11:13:30;;;;;;;6.75;4.08;;;;;;;18.41;48.73;98430.66;2299173;76;22221;-73
2023/10/20 11:16:37;;;;;;;9.63;4.25;;;;;;;18.33;48.88;98431.84;2326787;75;51384;-73
2023/10/20 11:19:39;;;;;;;5.45;3.60;;;;;;;18.32;48.92;98434.24;2326511;75;51590;-73
2023/10/20 11:22:41;;;;;;;4.70;3.45;;;;;;;18.29;48.95;98434.72;2326177;75;51528;-73
2023/10/20 11:25:45;;;;;;;6.83;3.83;;;;;;;18.22;49.08;98423.31;2299697;76;51485;-72
2023/10/20 11:28:47;;;;;;;6.97;4.17;;;;;;;18.22;49.09;98428.67;2298480;75;51178;-73
2023/10/20 11:31:49;;;;;;;6.87;3.87;;;;;;;18.19;49.14;98429.14;2309621;76;50610;-73
2023/10/20 11:34:51;;;;;;;5.72;3.80;;;;;;;18.26;49.05;98435.16;2286933;77;51569;-73
2023/10/20 11:37:55;;;;;;;5.55;3.60;;;;;;;18.30;48.99;98434.99;2236833;77;51126;-72
2023/10/20 11:40:57;;;;;;;6.17;3.60;;;;;;;18.35;48.89;98440.98;2286870;77;50742;-72
2023/10/20 11:44:00;;;;;;;7.62;4.22;;;;;;;18.36;48.84;98436.72;2286721;77;51359;-72
2023/10/20 11:47:02;;;;;;;5.97;3.80;;;;;;;18.37;48.78;98439.70;2286784;77;51378;-73
2023/10/20 11:50:05;;;;;;;4.85;3.58;;;;;;;18.32;48.90;98440.94;2261111;77;50333;-74
2023/10/20 11:53:07;;;;;;;6.37;3.40;;;;;;;18.28;48.98;98445.92;2260472;77;50618;-73
2023/10/20 11:56:10;;;;;;;7.53;3.83;;;;;;;18.24;49.06;98458.17;2260940;77;50254;-73
2023/10/20 11:59:12;;;;;;;5.87;3.40;;;;;;;18.18;49.15;98455.07;2286726;77;51534;-74
2023/10/20 12:02:15;;;;;;;5.28;3.42;;;;;;;18.17;49.19;98443.28;2248851;76;52435;-72
2023/10/20 12:05:17;;;;;;;6.00;3.47;;;;;;;18.16;49.19;98458.53;2301238;76;50294;-73
2023/10/20 12:08:20;;;;;;;6.15;3.37;;;;;;;18.14;49.24;98438.39;2271549;76;50248;-73
2023/10/20 12:11:22;;;;;;;6.40;3.92;;;;;;;18.15;49.25;98434.66;2298200;76;51546;-73
2023/10/20 12:14:26;;;;;;;6.92;3.50;;;;;;;18.19;49.19;98432.63;2324304;76;50248;-73
2023/10/20 12:17:28;;;;;;;5.55;3.33;;;;;;;18.32;48.95;98423.53;2323984;76;50098;-72
2023/10/20 12:20:31;;;;;;;6.17;3.60;;;;;;;18.34;48.87;98425.45;2298104;76;50262;-73
2023/10/20 12:23:33;;;;;;;5.33;3.33;;;;;;;18.43;48.68;98413.31;2298002;76;51601;-73
2023/10/20 12:26:36;;;;;;;5.15;3.17;;;;;;;18.41;48.76;98407.37;2272413;76;49559;-73
2023/10/20 12:29:39;;;;;;;5.47;3.40;;;;;;;18.42;48.73;98390.28;2298553;76;51512;-73
2023/10/20 12:32:42;;;;;;;4.55;3.15;;;;;;;18.42;48.70;98379.56;2324970;76;51427;-72
2023/10/20 12:35:45;;;;;;;5.67;3.10;;;;;;;18.41;48.69;98377.92;2273663;76;50037;-75
2023/10/20 12:38:48;;;;;;;5.22;3.35;;;;;;;18.35;48.81;98370.84;2300348;76;53865;-72
2023/10/20 12:41:50;;;;;;;4.90;3.00;;;;;;;18.33;48.84;98366.25;2274493;76;52509;-74
2023/10/20 12:44:52;;;;;;;5.55;3.20;;;;;;;18.28;48.91;98359.45;2299865;76;50422;-73
2023/10/20 12:47:55;;;;;;;4.37;3.10;;;;;;;18.20;49.09;98347.78;2273599;76;51535;-72
2023/10/20 12:50:57;;;;;;;4.28;2.90;;;;;;;18.21;49.05;98338.19;2276311;76;52635;-74
2023/10/20 12:54:01;;;;;;;4.37;2.95;;;;;;;18.22;49.08;98322.94;2299609;76;51526;-75
2023/10/20 12:57:03;;;;;;;3.95;2.80;;;;;;;18.26;49.01;98319.55;2300133;76;51632;-73
2023/10/20 13:00:07;;;;;;;6.50;3.35;;;;;;;18.34;48.84;98310.84;2299898;76;50792;-73
2023/10/20 13:03:09;;;;;;;6.05;3.10;;;;;;;18.39;48.71;98291.66;2279804;76;51597;-73
2023/10/20 13:06:11;;;;;;;4.80;3.08;;;;;;;18.38;48.72;98296.74;2298226;76;50614;-73
2023/10/20 13:09:14;;;;;;;5.62;3.27;;;;;;;18.35;48.74;98295.89;2271566;76;50377;-72
2023/10/20 13:12:16;;;;;;;5.15;3.12;;;;;;;18.31;48.83;98300.61;2298098;76;51541;-72
2023/10/20 13:15:19;;;;;;;4.90;3.02;;;;;;;18.28;48.87;98297.88;2272613;76;51736;-73
2023/10/20 13:18:21;;;;;;;5.05;2.90;;;;;;;18.19;49.04;98291.30;2298140;76;50654;-73
2023/10/20 13:21:24;;;;;;;5.40;2.95;;;;;;;18.17;49.06;98291.52;2297978;76;50424;-72
2023/10/20 13:24:27;;;;;;;4.60;3.08;;;;;;;18.12;49.19;98287.94;2324157;76;50755;-73
2023/10/20 13:27:29;;;;;;;4.28;3.00;;;;;;;18.09;49.26;98267.02;2298116;76;50724;-73
2023/10/20 13:30:31;;;;;;;4.28;2.70;;;;;;;18.10;49.18;98261.41;2271408;76;52628;-73
2023/10/20 13:33:35;;;;;;;4.55;2.90;;;;;;;18.18;49.01;98258.34;2298872;76;50280;-73
2023/10/20 13:36:37;;;;;;;4.53;2.80;;;;;;;18.22;48.97;98247.99;2338110;76;50290;-72
2023/10/20 13:39:40;;;;;;;2.35;2.15;;;;;;;18.30;48.82;98240.91;2340331;75;49620;-72
2023/10/20 13:42:42;;;;;;;5.08;3.15;;;;;;;18.35;48.68;98213.42;2313930;76;51606;-73
2023/10/20 13:45:45;;;;;;;3.85;2.87;;;;;;;18.45;48.51;98213.61;2338579;76;51529;-75
2023/10/20 13:48:47;;;;;;;3.98;2.70;;;;;;;18.43;48.51;98223.20;2314052;76;51601;-73
2023/10/20 13:51:49;;;;;;;4.28;2.98;;;;;;;18.46;48.39;98214.69;2285073;76;52041;-73
2023/10/20 13:54:51;;;;;;;4.65;2.85;;;;;;;18.44;48.43;98219.46;2287965;76;50683;-73
2023/10/20 13:57:55;;;;;;;5.47;2.80;;;;;;;18.39;48.53;98207.33;2314312;76;51561;-73
2023/10/20 14:00:57;;;;;;;4.92;2.75;;;;;;;18.36;48.58;98219.05;2337961;75;51486;-73
2023/10/20 14:03:59;;;;;;;4.78;3.08;;;;;;;18.31;48.71;98211.73;2299243;76;52392;-73
2023/10/20 14:07:02;;;;;;;3.50;3.05;;;;;;;18.25;48.82;98214.05;2273311;76;51478;-72
2023/10/20 14:10:05;;;;;;;4.50;2.85;;;;;;;18.17;48.94;98215.25;2299931;76;50610;-73
2023/10/20 14:13:08;;;;;;;4.05;3.08;;;;;;;18.19;48.92;98226.53;2235858;77;52739;-73
2023/10/20 14:16:10;;;;;;;4.55;2.80;;;;;;;18.24;48.84;98236.52;2261604;77;51538;-74
2023/10/20 14:19:12;;;;;;;4.35;2.42;;;;;;;18.25;48.87;98246.17;2261690;77;51413;-73
2023/10/20 14:22:14;;;;;;;4.78;2.87;;;;;;;18.30;48.77;98241.44;2261439;77;52552;-73
2023/10/20 14:25:17;;;;;;;4.50;2.77;;;;;;;18.35;48.65;98244.22;2287342;76;50518;-73
2023/10/20 14:28:19;;;;;;;3.30;2.55;;;;;;;18.42;48.46;98244.35;2261902;77;51395;-73
2023/10/20 14:31:21;;;;;;;3.50;2.52;;;;;;;18.35;48.59;98235.65;2274825;75;51468;-73
2023/10/20 14:34:23;;;;;;;5.10;2.65;;;;;;;18.32;48.64;98225.42;2330206;76;51478;-73